createdAt,value
2023-05-13T00:02:08.218Z,19.90
2023-05-13T00:04:34.885Z,19.80
2023-05-13T00:07:01.695Z,19.90
2023-05-13T00:09:28.290Z,19.90
2023-05-13T00:11:54.906Z,19.90
2023-05-13T00:14:21.844Z,19.90
2023-05-13T00:16:48.609Z,19.80
2023-05-13T00:19:15.283Z,19.80
2023-05-13T00:21:41.932Z,19.80
2023-05-13T00:24:08.619Z,19.80
2023-05-13T00:26:35.209Z,19.80
2023-05-13T00:29:01.830Z,19.80
2023-05-13T00:31:28.520Z,19.80
2023-05-13T00:33:55.231Z,19.80
2023-05-13T00:36:21.912Z,19.80
2023-05-13T00:38:48.561Z,19.80
2023-05-13T00:41:15.340Z,19.80
2023-05-13T00:43:41.951Z,19.80
2023-05-13T00:46:08.781Z,19.80
2023-05-13T00:48:35.676Z,19.80
2023-05-13T00:51:02.441Z,19.70
2023-05-13T00:53:30.682Z,19.80
2023-05-13T00:55:57.297Z,19.70
2023-05-13T00:58:23.910Z,19.80
2023-05-13T01:01:09.484Z,19.80
2023-05-13T01:04:28.170Z,19.80
2023-05-13T01:07:10.236Z,19.80
2023-05-13T01:09:48.353Z,19.70
2023-05-13T01:12:26.544Z,19.80
2023-05-13T01:15:03.011Z,19.80
2023-05-13T01:17:37.612Z,19.80
2023-05-13T01:20:05.047Z,19.80
2023-05-13T01:22:32.187Z,19.70
2023-05-13T01:24:58.963Z,19.80
2023-05-13T01:27:25.996Z,19.80
2023-05-13T01:29:53.866Z,19.80
2023-05-13T01:32:22.768Z,19.70
2023-05-13T01:34:51.826Z,19.80
2023-05-13T01:37:19.370Z,19.80
2023-05-13T01:39:46.748Z,19.80
2023-05-13T01:42:14.003Z,19.80
2023-05-13T01:44:40.771Z,19.80
2023-05-13T01:47:07.438Z,19.70
2023-05-13T01:49:34.019Z,19.70
2023-05-13T01:52:00.764Z,19.70
2023-05-13T01:54:27.392Z,19.70
2023-05-13T01:56:54.537Z,19.70
2023-05-13T01:59:21.676Z,19.70
2023-05-13T02:01:48.303Z,19.70
2023-05-13T02:04:14.989Z,19.70
2023-05-13T02:06:41.582Z,19.70
2023-05-13T02:09:08.302Z,19.70
2023-05-13T02:11:35.709Z,19.70
2023-05-13T02:14:02.396Z,19.70
2023-05-13T02:16:29.916Z,19.70
2023-05-13T02:18:56.826Z,19.60
2023-05-13T02:21:23.438Z,19.60
2023-05-13T02:23:50.159Z,19.60
2023-05-13T02:26:16.781Z,19.60
2023-05-13T02:28:43.579Z,19.70
2023-05-13T02:31:10.663Z,19.70
2023-05-13T02:33:37.285Z,19.60
2023-05-13T02:36:04.123Z,19.60
2023-05-13T02:38:30.736Z,19.60
2023-05-13T02:40:57.307Z,19.70
2023-05-13T02:43:24.813Z,19.70
2023-05-13T02:45:51.517Z,19.70
2023-05-13T02:48:18.476Z,19.60
2023-05-13T02:50:45.264Z,19.60
2023-05-13T02:53:12.064Z,19.60
2023-05-13T02:55:38.699Z,19.60
2023-05-13T02:58:05.340Z,19.60
2023-05-13T03:00:32.052Z,19.60
2023-05-13T03:02:58.791Z,19.50
2023-05-13T03:05:27.183Z,19.60
2023-05-13T03:07:55.037Z,19.60
2023-05-13T03:10:21.778Z,19.60
2023-05-13T03:12:48.588Z,19.60
2023-05-13T03:15:16.196Z,19.60
2023-05-13T03:17:44.206Z,19.60
2023-05-13T03:20:11.472Z,19.60
2023-05-13T03:22:40.872Z,19.50
2023-05-13T03:25:08.106Z,19.60
2023-05-13T03:27:34.775Z,19.60
2023-05-13T03:30:01.463Z,19.60
2023-05-13T03:32:30.809Z,19.60
2023-05-13T03:34:58.090Z,19.60
2023-05-13T03:37:24.818Z,19.60
2023-05-13T03:39:51.908Z,19.60
2023-05-13T03:42:20.289Z,19.60
2023-05-13T03:44:46.900Z,19.50
2023-05-13T03:47:13.505Z,19.50
2023-05-13T03:49:40.141Z,19.60
2023-05-13T03:52:09.813Z,19.60
2023-05-13T03:54:36.531Z,19.60
2023-05-13T03:57:03.253Z,19.60
2023-05-13T03:59:29.858Z,19.60
2023-05-13T04:01:56.456Z,19.60
2023-05-13T04:04:23.186Z,19.50
2023-05-13T04:06:49.822Z,19.60
2023-05-13T04:09:16.540Z,19.50
2023-05-13T04:11:43.188Z,19.60
2023-05-13T04:14:09.806Z,19.60
2023-05-13T04:16:36.601Z,19.60
2023-05-13T04:19:03.296Z,19.50
2023-05-13T04:21:29.954Z,19.50
2023-05-13T04:23:56.807Z,19.60
2023-05-13T04:26:23.668Z,19.50
2023-05-13T04:28:50.829Z,19.50
2023-05-13T04:31:17.870Z,19.50
2023-05-13T04:33:45.284Z,19.60
2023-05-13T04:36:14.308Z,19.60
2023-05-13T04:38:41.618Z,19.60
2023-05-13T04:41:08.199Z,19.60
2023-05-13T04:43:34.830Z,19.60
2023-05-13T04:46:01.605Z,19.60
2023-05-13T04:48:28.752Z,19.50
2023-05-13T04:50:56.464Z,19.60
2023-05-13T04:53:23.451Z,19.50
2023-05-13T04:55:50.575Z,19.50
2023-05-13T04:58:17.265Z,19.60
2023-05-13T05:00:43.939Z,19.60
2023-05-13T05:03:10.596Z,19.60
2023-05-13T05:05:37.203Z,19.50
2023-05-13T05:08:03.874Z,19.50
2023-05-13T05:10:30.583Z,19.60
2023-05-13T05:12:57.181Z,19.50
2023-05-13T05:15:23.870Z,19.60
2023-05-13T05:17:50.570Z,19.50
2023-05-13T05:20:17.403Z,19.60
2023-05-13T05:22:43.987Z,19.60
2023-05-13T05:25:11.529Z,19.60
2023-05-13T05:27:38.328Z,19.70
2023-05-13T05:30:05.584Z,19.70
2023-05-13T05:32:32.753Z,19.60
2023-05-13T05:35:02.013Z,19.70
2023-05-13T05:37:29.890Z,19.60
2023-05-13T05:39:56.524Z,19.70
2023-05-13T05:42:23.104Z,19.70
2023-05-13T05:44:49.684Z,19.70
2023-05-13T05:47:16.298Z,19.70
2023-05-13T05:49:42.881Z,19.70
2023-05-13T05:52:11.083Z,19.60
2023-05-13T05:54:37.749Z,19.60
2023-05-13T05:57:04.708Z,19.70
2023-05-13T05:59:31.369Z,19.70
2023-05-13T06:01:58.018Z,19.60
2023-05-13T06:04:24.797Z,19.60
2023-05-13T06:06:51.490Z,19.60
2023-05-13T06:09:18.194Z,19.60
2023-05-13T06:11:44.833Z,19.50
2023-05-13T06:14:11.440Z,19.60
2023-05-13T06:16:38.070Z,19.50
2023-05-13T06:19:04.680Z,19.50
2023-05-13T06:21:32.032Z,19.50
2023-05-13T06:23:58.702Z,19.50
2023-05-13T06:26:25.376Z,19.50
2023-05-13T06:28:52.008Z,19.60
2023-05-13T06:31:18.670Z,19.50
2023-05-13T06:33:45.308Z,19.60
2023-05-13T06:36:13.022Z,19.60
2023-05-13T06:38:39.669Z,19.60
2023-05-13T06:41:06.559Z,19.60
2023-05-13T06:43:33.170Z,19.60
2023-05-13T06:45:59.902Z,19.60
2023-05-13T06:48:26.867Z,19.60
2023-05-13T06:50:53.813Z,19.60
2023-05-13T06:53:20.487Z,19.60
2023-05-13T06:55:47.870Z,19.60
2023-05-13T06:58:14.522Z,19.60
2023-05-13T07:00:41.268Z,19.60
2023-05-13T07:03:08.436Z,19.60
2023-05-13T07:05:35.643Z,19.60
2023-05-13T07:08:06.508Z,19.70
2023-05-13T07:10:34.031Z,19.60
2023-05-13T07:13:01.904Z,19.70
2023-05-13T07:15:28.701Z,19.70
2023-05-13T07:17:55.380Z,19.70
2023-05-13T07:20:23.229Z,19.70
2023-05-13T07:22:50.491Z,19.70
2023-05-13T07:25:18.124Z,19.70
2023-05-13T07:27:45.182Z,19.80
2023-05-13T07:30:12.600Z,19.80
2023-05-13T07:32:39.761Z,19.80
2023-05-13T07:35:07.242Z,19.90
2023-05-13T07:37:33.892Z,19.80
2023-05-13T07:40:00.528Z,19.80
2023-05-13T07:42:28.177Z,19.80
2023-05-13T07:44:54.793Z,19.80
2023-05-13T07:47:21.493Z,19.80
2023-05-13T07:49:48.906Z,19.80
2023-05-13T07:52:16.857Z,19.70
2023-05-13T07:54:43.469Z,19.80
2023-05-13T07:57:10.114Z,19.80
2023-05-13T07:59:37.869Z,19.80
2023-05-13T08:02:04.695Z,19.80
2023-05-13T08:04:31.331Z,19.80
2023-05-13T08:06:58.026Z,19.90
2023-05-13T08:09:24.707Z,19.90
2023-05-13T08:11:51.346Z,20.10
2023-05-13T08:14:17.970Z,19.90
2023-05-13T08:16:44.700Z,19.90
2023-05-13T08:19:11.515Z,19.90
2023-05-13T08:21:38.143Z,19.90
2023-05-13T08:24:05.176Z,19.90
2023-05-13T08:26:31.983Z,19.80
2023-05-13T08:28:58.663Z,19.90
2023-05-13T08:31:25.865Z,19.80
2023-05-13T08:33:53.438Z,19.80
2023-05-13T08:36:21.768Z,19.80
2023-05-13T08:38:48.578Z,19.90
2023-05-13T08:41:15.494Z,19.80
2023-05-13T08:43:47.170Z,19.80
2023-05-13T08:46:17.006Z,19.80
2023-05-13T08:48:44.542Z,19.80
2023-05-13T08:51:12.291Z,19.90
2023-05-13T08:53:40.026Z,19.80
2023-05-13T08:56:09.073Z,19.80
2023-05-13T08:58:35.782Z,19.90
2023-05-13T09:01:03.944Z,20.00
2023-05-13T09:03:31.468Z,20.10
2023-05-13T09:06:01.434Z,20.10
2023-05-13T09:08:28.055Z,20.10
2023-05-13T09:10:54.711Z,20.00
2023-05-13T09:13:21.915Z,20.00
2023-05-13T09:15:50.464Z,20.00
2023-05-13T09:18:19.408Z,20.00
2023-05-13T09:20:46.548Z,20.00
2023-05-13T09:23:13.787Z,19.90
2023-05-13T09:25:40.611Z,19.90
2023-05-13T09:28:08.342Z,19.90
2023-05-13T09:30:40.563Z,20.20
2023-05-13T09:33:11.083Z,20.20
2023-05-13T09:35:40.243Z,20.10
2023-05-13T09:38:15.514Z,20.10
2023-05-13T09:40:52.461Z,20.00
2023-05-13T09:43:23.847Z,20.00
2023-05-13T09:45:55.356Z,20.00
2023-05-13T09:48:24.508Z,20.10
2023-05-13T09:50:52.311Z,20.10
2023-05-13T09:53:22.516Z,20.10
2023-05-13T09:55:56.690Z,20.10
2023-05-13T09:58:25.645Z,20.10
2023-05-13T10:00:52.721Z,20.00
2023-05-13T10:03:19.736Z,20.00
2023-05-13T10:05:48.445Z,20.10
2023-05-13T10:08:15.513Z,20.00
2023-05-13T10:10:45.519Z,20.00
2023-05-13T10:13:17.211Z,20.00
2023-05-13T10:15:54.494Z,20.00
2023-05-13T10:18:23.791Z,20.00
2023-05-13T10:20:53.717Z,20.00
2023-05-13T10:23:22.420Z,20.10
2023-05-13T10:25:49.972Z,20.10
2023-05-13T10:28:17.132Z,20.00
2023-05-13T10:30:44.922Z,20.00
2023-05-13T10:33:11.955Z,20.00
2023-05-13T10:35:43.321Z,20.00
2023-05-13T10:38:16.424Z,20.10
2023-05-13T10:41:18.624Z,20.00
2023-05-13T10:43:45.804Z,20.00
2023-05-13T10:46:13.543Z,20.00
2023-05-13T10:48:48.357Z,20.00
2023-05-13T10:51:17.184Z,20.10
2023-05-13T10:53:57.719Z,20.00
2023-05-13T10:56:26.778Z,20.00
2023-05-13T10:59:02.306Z,20.10
2023-05-13T11:01:30.988Z,20.10
2023-05-13T11:04:02.402Z,20.10
2023-05-13T11:06:43.323Z,20.10
2023-05-13T11:09:22.681Z,20.10
2023-05-13T11:11:54.010Z,20.20
2023-05-13T11:14:22.241Z,20.10
2023-05-13T11:17:08.220Z,20.10
2023-05-13T11:19:48.647Z,20.10
2023-05-13T11:22:23.940Z,20.20
2023-05-13T11:25:10.672Z,20.20
2023-05-13T11:27:41.748Z,20.20
2023-05-13T11:30:28.932Z,20.20
2023-05-13T11:32:59.740Z,20.20
2023-05-13T11:35:30.426Z,20.20
2023-05-13T11:38:00.113Z,20.20
2023-05-13T11:40:27.104Z,20.20
2023-05-13T11:42:54.356Z,20.20
2023-05-13T11:45:22.813Z,20.10
2023-05-13T11:47:50.212Z,20.10
2023-05-13T11:50:30.723Z,20.10
2023-05-13T11:52:59.150Z,20.10
2023-05-13T11:55:27.038Z,20.10
2023-05-13T11:57:54.245Z,20.10
2023-05-13T12:00:34.813Z,20.10
2023-05-13T12:03:09.162Z,20.10
2023-05-13T12:05:36.133Z,20.20
2023-05-13T12:08:03.083Z,19.70
2023-05-13T12:10:29.681Z,20.10
2023-05-13T12:12:56.809Z,20.20
2023-05-13T12:15:23.933Z,20.10
2023-05-13T12:17:51.341Z,20.20
2023-05-13T12:20:20.140Z,20.20
2023-05-13T12:22:46.811Z,20.20
2023-05-13T12:25:42.525Z,20.20
2023-05-13T12:28:25.893Z,20.20
2023-05-13T12:30:53.838Z,20.20
2023-05-13T12:33:29.481Z,20.30
2023-05-13T12:36:25.607Z,20.30
2023-05-13T12:39:01.232Z,20.30
2023-05-13T12:41:30.674Z,20.30
2023-05-13T12:43:59.046Z,20.30
2023-05-13T12:46:25.854Z,20.30
2023-05-13T12:48:54.902Z,20.30
2023-05-13T12:51:24.745Z,20.30
2023-05-13T12:53:54.033Z,20.30
2023-05-13T12:56:22.385Z,20.40
2023-05-13T12:58:53.791Z,20.40
2023-05-13T13:01:21.153Z,20.40
2023-05-13T13:03:47.953Z,20.40
2023-05-13T13:06:15.253Z,20.40
2023-05-13T13:08:42.282Z,20.30
2023-05-13T13:11:09.170Z,20.30
2023-05-13T13:13:38.145Z,20.30
2023-05-13T13:16:06.200Z,20.30
2023-05-13T13:18:32.924Z,20.20
2023-05-13T13:20:59.590Z,20.20
2023-05-13T13:23:26.332Z,20.20
2023-05-13T13:25:52.990Z,20.20
2023-05-13T13:28:19.602Z,20.20
2023-05-13T13:30:47.118Z,20.20
2023-05-13T13:33:15.158Z,20.20
2023-05-13T13:35:44.122Z,20.30
2023-05-13T13:38:10.970Z,20.30
2023-05-13T13:40:37.623Z,20.30
2023-05-13T13:43:07.593Z,20.30
2023-05-13T13:45:35.000Z,20.20
2023-05-13T13:48:02.264Z,20.20
2023-05-13T13:50:28.945Z,20.20
2023-05-13T13:52:55.700Z,20.20
2023-05-13T13:55:24.112Z,20.30
2023-05-13T13:57:51.978Z,20.20
2023-05-13T14:00:19.157Z,20.20
2023-05-13T14:02:46.110Z,20.20
2023-05-13T14:05:13.577Z,20.20
2023-05-13T14:07:40.489Z,20.20
2023-05-13T14:10:07.990Z,20.20
2023-05-13T14:12:36.131Z,20.20
2023-05-13T14:15:03.434Z,20.20
2023-05-13T14:17:30.227Z,20.20
2023-05-13T14:19:56.931Z,20.20
2023-05-13T14:22:24.530Z,20.20
2023-05-13T14:24:54.471Z,20.20
2023-05-13T14:27:21.858Z,20.20
2023-05-13T14:29:49.176Z,20.20
2023-05-13T14:32:16.034Z,20.10
2023-05-13T14:34:42.842Z,20.20
2023-05-13T14:37:09.542Z,20.20
2023-05-13T14:39:36.341Z,21.40
2023-05-13T14:42:03.708Z,20.10
2023-05-13T14:44:30.364Z,20.20
2023-05-13T14:46:57.189Z,20.20
2023-05-13T14:49:24.014Z,20.20
2023-05-13T14:51:50.680Z,20.20
2023-05-13T14:54:17.807Z,20.10
2023-05-13T14:56:44.954Z,20.10
2023-05-13T14:59:14.498Z,20.10
2023-05-13T15:01:41.939Z,20.20
2023-05-13T15:04:08.592Z,20.20
2023-05-13T15:06:36.821Z,20.20
2023-05-13T15:09:03.676Z,20.30
2023-05-13T15:11:30.311Z,20.30
2023-05-13T15:13:56.980Z,20.20
2023-05-13T15:16:23.664Z,20.20
2023-05-13T15:18:50.680Z,20.20
2023-05-13T15:21:17.778Z,20.20
2023-05-13T15:23:44.621Z,20.20
2023-05-13T15:26:11.347Z,20.20
2023-05-13T15:28:38.045Z,20.20
2023-05-13T15:31:05.689Z,20.20
2023-05-13T15:33:32.597Z,20.30
2023-05-13T15:35:59.889Z,20.30
2023-05-13T15:38:27.000Z,20.30
2023-05-13T15:40:53.760Z,20.30
2023-05-13T15:43:20.764Z,20.20
2023-05-13T15:45:47.898Z,20.20
2023-05-13T15:48:14.602Z,20.10
2023-05-13T15:50:41.460Z,20.10
2023-05-13T15:53:08.089Z,20.10
2023-05-13T15:55:36.722Z,20.20
2023-05-13T15:58:03.391Z,20.30
2023-05-13T16:00:30.532Z,20.40
2023-05-13T16:02:57.269Z,20.40
2023-05-13T16:05:23.982Z,20.50
2023-05-13T16:07:50.738Z,20.50
2023-05-13T16:10:17.586Z,20.50
2023-05-13T16:12:44.372Z,20.50
2023-05-13T16:15:11.588Z,20.40
2023-05-13T16:17:38.232Z,20.40
2023-05-13T16:20:05.561Z,20.40
2023-05-13T16:22:36.816Z,20.40
2023-05-13T16:25:12.576Z,20.40
2023-05-13T16:27:40.076Z,20.40
2023-05-13T16:30:07.686Z,20.50
2023-05-13T16:32:34.851Z,20.50
2023-05-13T16:35:01.986Z,20.50
2023-05-13T16:37:28.896Z,20.60
2023-05-13T16:39:55.713Z,20.50
2023-05-13T16:42:22.739Z,20.40
2023-05-13T16:44:49.365Z,20.20
2023-05-13T16:47:16.044Z,20.10
2023-05-13T16:49:42.710Z,20.10
2023-05-13T16:52:11.670Z,20.10
2023-05-13T16:54:38.279Z,20.10
2023-05-13T16:57:05.052Z,20.10
2023-05-13T16:59:31.650Z,20.10
2023-05-13T17:01:59.253Z,20.00
2023-05-13T17:04:26.619Z,20.10
2023-05-13T17:06:53.632Z,20.00
2023-05-13T17:09:20.310Z,20.00
2023-05-13T17:11:46.926Z,20.10
2023-05-13T17:14:13.553Z,20.00
2023-05-13T17:16:41.890Z,20.00
2023-05-13T17:19:09.289Z,20.10
2023-05-13T17:21:35.973Z,20.00
2023-05-13T17:24:02.651Z,20.00
2023-05-13T17:26:30.418Z,20.10
2023-05-13T17:28:57.082Z,20.10
2023-05-13T17:31:24.844Z,20.00
2023-05-13T17:33:51.616Z,20.00
2023-05-13T17:36:18.371Z,20.00
2023-05-13T17:38:45.003Z,20.00
2023-05-13T17:41:18.713Z,20.00
2023-05-13T17:43:46.269Z,20.00
2023-05-13T17:46:12.897Z,20.00
2023-05-13T17:48:39.662Z,20.00
2023-05-13T17:51:06.440Z,20.00
2023-05-13T17:53:34.785Z,20.00
2023-05-13T17:56:01.969Z,20.00
2023-05-13T17:58:28.697Z,20.00
2023-05-13T18:00:55.360Z,20.00
2023-05-13T18:03:22.047Z,20.00
2023-05-13T18:05:48.873Z,20.00
2023-05-13T18:08:15.535Z,20.00
2023-05-13T18:10:42.203Z,20.00
2023-05-13T18:13:08.844Z,20.00
2023-05-13T18:15:35.516Z,20.00
2023-05-13T18:18:03.538Z,19.90
2023-05-13T18:20:34.003Z,20.00
2023-05-13T18:23:00.812Z,20.00
2023-05-13T18:25:27.438Z,20.00
2023-05-13T18:27:54.514Z,20.00
2023-05-13T18:30:21.426Z,19.90
2023-05-13T18:32:48.448Z,19.90
2023-05-13T18:35:15.970Z,19.90
2023-05-13T18:37:42.659Z,19.90
2023-05-13T18:40:09.870Z,20.00
2023-05-13T18:42:36.491Z,19.90
2023-05-13T18:45:03.302Z,19.90
2023-05-13T18:47:29.901Z,19.90
2023-05-13T18:49:56.470Z,19.90
2023-05-13T18:52:23.129Z,19.90
2023-05-13T18:54:49.744Z,19.90
2023-05-13T18:57:16.773Z,19.90
2023-05-13T18:59:43.515Z,19.90
2023-05-13T19:02:10.469Z,19.90
2023-05-13T19:04:37.248Z,20.00
2023-05-13T19:07:03.957Z,19.90
2023-05-13T19:09:30.590Z,20.00
2023-05-13T19:11:57.218Z,19.90
2023-05-13T19:14:23.821Z,19.90
2023-05-13T19:16:50.655Z,19.90
2023-05-13T19:19:17.394Z,19.90
2023-05-13T19:21:44.015Z,19.90
2023-05-13T19:24:10.650Z,19.90
2023-05-13T19:26:37.760Z,19.80
2023-05-13T19:29:04.542Z,19.90
2023-05-13T19:31:32.184Z,19.80
2023-05-13T19:34:00.665Z,19.80
2023-05-13T19:36:27.552Z,19.80
2023-05-13T19:38:55.225Z,19.80
2023-05-13T19:41:22.436Z,19.80
2023-05-13T19:43:49.067Z,19.80
2023-05-13T19:46:15.757Z,19.80
2023-05-13T19:48:42.426Z,19.80
2023-05-13T19:51:09.095Z,19.80
2023-05-13T19:53:36.214Z,19.80
2023-05-13T19:56:03.942Z,19.80
2023-05-13T19:58:30.661Z,19.80
2023-05-13T20:00:58.022Z,19.80
2023-05-13T20:03:24.711Z,19.80
2023-05-13T20:05:52.964Z,19.80
2023-05-13T20:08:20.738Z,19.80
2023-05-13T20:10:47.424Z,19.80
2023-05-13T20:13:14.104Z,19.80
2023-05-13T20:15:42.105Z,19.80
2023-05-13T20:18:08.824Z,19.80
2023-05-13T20:20:35.739Z,19.80
2023-05-13T20:23:02.417Z,19.70
2023-05-13T20:25:29.049Z,19.80
2023-05-13T20:27:55.647Z,19.80
2023-05-13T20:30:22.495Z,19.70
2023-05-13T20:32:49.382Z,19.70
2023-05-13T20:35:16.146Z,19.70
2023-05-13T20:37:42.782Z,19.70
2023-05-13T20:40:09.798Z,19.70
2023-05-13T20:42:36.420Z,19.70
2023-05-13T20:45:04.284Z,19.70
2023-05-13T20:47:31.211Z,19.80
2023-05-13T20:49:57.970Z,19.40
2023-05-13T20:52:24.960Z,19.70
2023-05-13T20:54:51.642Z,19.70
2023-05-13T20:57:18.217Z,19.70
2023-05-13T20:59:44.842Z,19.70
2023-05-13T21:02:11.495Z,19.70
2023-05-13T21:04:38.106Z,19.70
2023-05-13T21:07:06.560Z,19.70
2023-05-13T21:09:33.230Z,19.70
2023-05-13T21:11:59.862Z,19.70
2023-05-13T21:14:26.458Z,19.70
2023-05-13T21:16:53.063Z,19.70
2023-05-13T21:19:24.019Z,19.60
2023-05-13T21:21:50.911Z,19.70
2023-05-13T21:24:18.728Z,19.60
2023-05-13T21:26:46.206Z,19.60
2023-05-13T21:29:12.815Z,19.70
2023-05-13T21:31:39.543Z,19.60
2023-05-13T21:34:06.258Z,19.60
2023-05-13T21:36:33.717Z,19.70
2023-05-13T21:39:00.462Z,19.70
2023-05-13T21:41:27.160Z,19.60
2023-05-13T21:43:53.831Z,19.60
2023-05-13T21:46:20.491Z,19.70
2023-05-13T21:48:47.395Z,19.60
2023-05-13T21:51:14.378Z,19.60
2023-05-13T21:53:40.991Z,19.70
2023-05-13T21:56:07.662Z,19.60
2023-05-13T21:58:34.303Z,19.60
2023-05-13T22:01:01.225Z,19.60
2023-05-13T22:03:27.962Z,19.60
2023-05-13T22:05:54.680Z,19.60
2023-05-13T22:08:21.905Z,19.60
2023-05-13T22:10:48.603Z,19.60
2023-05-13T22:13:15.468Z,19.60
2023-05-13T22:15:42.169Z,19.60
2023-05-13T22:18:08.994Z,19.60
2023-05-13T22:20:36.015Z,19.60
2023-05-13T22:23:02.671Z,19.60
2023-05-13T22:25:29.371Z,19.60
2023-05-13T22:27:55.970Z,19.60
2023-05-13T22:30:23.011Z,19.60
2023-05-13T22:32:50.779Z,19.60
2023-05-13T22:35:17.658Z,19.60
2023-05-13T22:37:44.412Z,19.60
2023-05-13T22:40:11.533Z,19.60
2023-05-13T22:42:38.194Z,19.60
2023-05-13T22:45:05.216Z,19.60
2023-05-13T22:47:31.875Z,19.60
2023-05-13T22:49:58.461Z,19.60
2023-05-13T22:52:25.206Z,19.60
2023-05-13T22:54:51.832Z,19.60
2023-05-13T22:57:18.440Z,19.60
2023-05-13T22:59:45.044Z,19.60
2023-05-13T23:02:11.845Z,19.60
2023-05-13T23:04:38.768Z,19.60
2023-05-13T23:07:05.476Z,19.50
2023-05-13T23:09:32.091Z,19.60
2023-05-13T23:11:58.743Z,19.60
2023-05-13T23:14:27.475Z,19.60
2023-05-13T23:16:54.084Z,19.50
2023-05-13T23:19:20.716Z,19.60
2023-05-13T23:21:47.326Z,19.60
2023-05-13T23:24:13.898Z,19.60
2023-05-13T23:26:40.517Z,19.50
2023-05-13T23:29:07.100Z,19.60
2023-05-13T23:31:33.783Z,19.60
2023-05-13T23:34:00.368Z,19.60
2023-05-13T23:36:27.051Z,19.50
2023-05-13T23:38:53.633Z,19.60
2023-05-13T23:41:21.654Z,19.60
2023-05-13T23:43:48.257Z,19.60
2023-05-13T23:46:14.920Z,19.50
2023-05-13T23:48:41.602Z,19.50
2023-05-13T23:51:08.407Z,19.50
2023-05-13T23:53:35.268Z,19.50
2023-05-13T23:56:01.870Z,19.50
2023-05-13T23:58:28.499Z,19.50
